Time;durP1;ratioP1;P1;durP2;ratioP2;P2;SDS_P1;SDS_P2;PMS_P1;PMS_P2;Temp;Humidity;BMP_temperature;BMP_pressure;BME280_temperature;BME280_humidity;BME280_pressure;Samples;Min_cycle;Max_cycle;Signal;HPM_P1;HPM_P2
2020/12/19 00:00:31;;;;;;;48.45;24.43;;;;;;;2.85;90.97;100825.87;1765371;80;21134;-69
2020/12/19 00:02:59;;;;;;;35.30;19.37;;;;;;;2.79;91.02;100831.36;1772298;81;21203;-68
2020/12/19 00:05:27;;;;;;;45.55;25.72;;;;;;;2.75;91.04;100838.02;1766654;80;21158;-70
2020/12/19 00:07:55;;;;;;;41.90;22.85;;;;;;;2.68;91.09;100840.22;1736927;80;21205;-69
2020/12/19 00:10:22;;;;;;;37.98;21.95;;;;;;;2.66;91.30;100842.20;1741747;82;21207;-68
2020/12/19 00:12:50;;;;;;;46.90;25.17;;;;;;;2.63;91.48;100840.73;1750895;79;21185;-67
2020/12/19 00:15:17;;;;;;;40.60;22.40;;;;;;;2.65;91.68;100836.06;1724764;82;21161;-67
2020/12/19 00:17:45;;;;;;;35.88;22.75;;;;;;;2.67;91.65;100835.40;1745586;79;21695;-71
2020/12/19 00:20:12;;;;;;;33.35;19.48;;;;;;;2.63;91.58;100834.92;1774367;80;21547;-66
2020/12/19 00:22:40;;;;;;;43.65;23.20;;;;;;;2.59;91.68;100834.10;1758161;80;21258;-69
2020/12/19 00:25:08;;;;;;;42.95;21.75;;;;;;;2.53;91.78;100836.94;1713811;81;21188;-65
2020/12/19 00:27:36;;;;;;;42.13;21.07;;;;;;;2.50;92.02;100826.63;1754859;81;21142;-69
2020/12/19 00:30:05;;;;;;;36.75;20.27;;;;;;;2.48;92.15;100837.11;1754769;81;20984;-69
2020/12/19 00:32:33;;;;;;;35.75;18.50;;;;;;;2.46;92.36;100833.78;1790968;79;21186;-67
2020/12/19 00:35:00;;;;;;;39.78;21.30;;;;;;;2.47;92.59;100842.91;1805842;79;21178;-68
2020/12/19 00:37:29;;;;;;;36.40;20.65;;;;;;;2.45;92.62;100840.91;1782074;79;21654;-68
2020/12/19 00:39:56;;;;;;;41.98;24.12;;;;;;;2.42;92.74;100843.92;1774064;80;21165;-80
2020/12/19 00:42:24;;;;;;;33.65;18.40;;;;;;;2.43;92.87;100848.73;1774082;80;21006;-69
2020/12/19 00:44:52;;;;;;;33.45;18.60;;;;;;;2.44;92.96;100846.41;1774211;80;21579;-66
2020/12/19 00:47:19;;;;;;;36.85;20.12;;;;;;;2.41;92.88;100838.77;1783094;79;21181;-66
2020/12/19 00:49:47;;;;;;;37.67;22.00;;;;;;;2.37;93.09;100837.45;1794261;79;21039;-68
2020/12/19 00:52:15;;;;;;;37.48;18.37;;;;;;;2.41;93.36;100834.78;1773683;80;21122;-68
2020/12/19 00:54:42;;;;;;;43.25;22.30;;;;;;;2.42;93.42;100835.12;1744035;80;21123;-70
2020/12/19 00:57:10;;;;;;;36.50;21.40;;;;;;;2.42;93.43;100832.47;1762975;80;21532;-68
2020/12/19 00:59:38;;;;;;;40.08;21.33;;;;;;;2.42;93.53;100826.66;1774192;80;23605;-69
2020/12/19 01:02:05;;;;;;;42.75;24.35;;;;;;;2.40;93.47;100829.97;1772459;80;21991;-69
2020/12/19 01:04:33;;;;;;;40.52;20.57;;;;;;;2.40;93.44;100835.81;1747117;79;21568;-71
2020/12/19 01:07:01;;;;;;;33.00;19.80;;;;;;;2.40;93.55;100827.84;1769388;80;21122;-70
2020/12/19 01:09:30;;;;;;;39.23;23.07;;;;;;;2.39;93.65;100836.30;1773848;80;21125;-70
2020/12/19 01:11:57;;;;;;;41.53;22.20;;;;;;;2.40;93.71;100834.48;1773947;80;21210;-69
2020/12/19 01:14:25;;;;;;;37.55;21.93;;;;;;;2.39;93.78;100842.11;1772621;80;21627;-70
2020/12/19 01:16:53;;;;;;;42.95;23.12;;;;;;;2.42;94.00;100840.43;1765807;80;21138;-69
2020/12/19 01:19:21;;;;;;;41.25;23.70;;;;;;;2.45;93.94;100833.45;1767687;80;21122;-71
2020/12/19 01:21:48;;;;;;;40.50;20.70;;;;;;;2.46;93.91;100841.25;1774134;80;21145;-68
2020/12/19 01:24:16;;;;;;;40.33;24.52;;;;;;;2.46;93.77;100838.59;1777367;79;21320;-69
2020/12/19 01:26:44;;;;;;;33.88;19.20;;;;;;;2.44;93.80;100837.95;1805799;79;21404;-68
2020/12/19 01:29:11;;;;;;;29.30;17.10;;;;;;;2.43;93.83;100832.31;1805896;79;21134;-70
2020/12/19 01:31:39;;;;;;;41.08;22.60;;;;;;;2.44;93.97;100835.30;1790552;79;21138;-73
2020/12/19 01:34:06;;;;;;;33.15;19.15;;;;;;;2.48;93.95;100835.28;1775971;79;21540;-71
2020/12/19 01:36:34;;;;;;;32.70;17.35;;;;;;;2.51;93.97;100840.74;1762691;79;22176;-71
2020/12/19 01:39:01;;;;;;;37.83;20.70;;;;;;;2.49;93.78;100839.61;1754811;81;21150;-73
2020/12/19 01:41:30;;;;;;;32.88;19.77;;;;;;;2.43;93.64;100846.91;1757762;80;22434;-69
2020/12/19 01:43:58;;;;;;;32.28;18.35;;;;;;;2.39;93.76;100842.94;1773788;80;21019;-69
2020/12/19 01:46:52;;;;;;;34.83;19.02;;;;;;;2.40;93.93;100843.77;1772120;79;21788;-69
2020/12/19 01:49:26;;;;;;;32.48;20.37;;;;;;;2.44;94.07;100846.41;1763619;81;23586;-69
2020/12/19 01:52:00;;;;;;;27.25;17.40;;;;;;;2.44;94.07;100840.61;1756530;80;21639;-69
2020/12/19 01:54:28;;;;;;;28.62;16.00;;;;;;;2.45;94.03;100841.41;1755170;81;21137;-69
2020/12/19 01:56:58;;;;;;;31.27;17.45;;;;;;;2.42;93.88;100840.43;1755774;80;21267;-70
2020/12/19 01:59:27;;;;;;;35.58;21.70;;;;;;;2.37;93.93;100836.95;1743547;82;22182;-69
2020/12/19 02:02:07;;;;;;;31.23;18.57;;;;;;;2.36;94.00;100837.95;1746804;80;21558;-71
2020/12/19 02:04:35;;;;;;;34.35;20.12;;;;;;;2.38;94.18;100843.93;1758790;79;21155;-69
2020/12/19 02:07:05;;;;;;;31.97;19.27;;;;;;;2.40;94.28;100840.59;1774297;79;21556;-70
2020/12/19 02:09:37;;;;;;;30.85;17.25;;;;;;;2.41;94.39;100841.42;1774049;80;21167;-70
2020/12/19 02:12:06;;;;;;;29.37;19.37;;;;;;;2.41;94.38;100844.91;1767517;80;21820;-71
2020/12/19 02:14:34;;;;;;;36.23;19.75;;;;;;;2.39;94.37;100842.11;1757316;80;23317;-72
2020/12/19 02:17:04;;;;;;;38.48;20.05;;;;;;;2.37;94.28;100842.77;1758014;80;21180;-71
2020/12/19 02:19:32;;;;;;;34.40;19.98;;;;;;;2.33;94.32;100843.61;1741869;82;21177;-72
2020/12/19 02:22:01;;;;;;;26.90;14.10;;;;;;;2.32;94.36;100843.27;1774974;79;21126;-74
2020/12/19 02:24:28;;;;;;;32.42;17.95;;;;;;;2.30;94.49;100841.30;1773694;80;21109;-72
2020/12/19 02:26:58;;;;;;;29.52;16.57;;;;;;;2.29;94.60;100839.63;1774044;80;21405;-71
2020/12/19 02:29:28;;;;;;;31.20;17.65;;;;;;;2.30;94.72;100839.97;1774152;80;21157;-71
2020/12/19 02:31:56;;;;;;;33.53;18.90;;;;;;;2.29;94.67;100834.82;1774315;80;21153;-72
2020/12/19 02:34:24;;;;;;;35.92;20.92;;;;;;;2.27;94.75;100830.99;1774250;80;21622;-73
2020/12/19 02:36:52;;;;;;;27.93;16.70;;;;;;;2.26;94.74;100835.97;1774345;80;21130;-72
2020/12/19 02:39:19;;;;;;;24.57;15.53;;;;;;;2.25;94.87;100827.70;1778710;79;21250;-71
2020/12/19 02:41:48;;;;;;;26.75;14.03;;;;;;;2.27;95.02;100833.65;1757371;79;21949;-71
2020/12/19 02:44:18;;;;;;;35.48;19.00;;;;;;;2.27;95.05;100834.14;1724864;82;21153;-72
2020/12/19 02:46:47;;;;;;;29.35;16.73;;;;;;;2.25;95.02;100831.68;1724854;82;21177;-72
2020/12/19 02:49:16;;;;;;;32.40;19.50;;;;;;;2.24;95.05;100837.98;1725160;80;21154;-72
2020/12/19 02:51:44;;;;;;;36.15;20.90;;;;;;;2.23;95.08;100836.81;1724978;83;21307;-72
2020/12/19 02:54:11;;;;;;;35.48;20.25;;;;;;;2.22;95.13;100841.28;1724742;83;21011;-72
2020/12/19 02:56:40;;;;;;;29.40;16.93;;;;;;;2.24;95.33;100832.67;1724861;83;20979;-73
2020/12/19 02:59:07;;;;;;;26.12;13.60;;;;;;;2.26;95.28;100846.58;1751780;79;21155;-72
2020/12/19 03:01:35;;;;;;;26.77;14.90;;;;;;;2.23;95.30;100848.26;1761335;81;21142;-72
2020/12/19 03:04:02;;;;;;;29.20;15.53;;;;;;;2.21;95.35;100844.13;1770495;80;21421;-72
2020/12/19 03:06:34;;;;;;;29.25;18.07;;;;;;;2.17;95.39;100844.94;1772363;80;21070;-70
2020/12/19 03:09:03;;;;;;;31.55;19.50;;;;;;;2.11;95.48;100840.31;1757421;79;21539;-74
2020/12/19 03:11:31;;;;;;;32.13;20.15;;;;;;;2.08;95.62;100832.67;1755439;81;21102;-72
2020/12/19 03:13:58;;;;;;;28.02;17.50;;;;;;;2.07;95.82;100830.52;1762095;81;21114;-72
2020/12/19 03:16:26;;;;;;;25.23;15.28;;;;;;;2.10;96.00;100825.39;1762613;81;21203;-73
2020/12/19 03:18:54;;;;;;;26.00;14.78;;;;;;;2.12;96.10;100840.63;1752823;80;21163;-72
2020/12/19 03:21:21;;;;;;;30.65;16.10;;;;;;;2.12;96.12;100837.97;1747655;82;21135;-73
2020/12/19 03:23:49;;;;;;;30.50;17.80;;;;;;;2.12;96.16;100844.61;1747519;82;21139;-73
2020/12/19 03:26:17;;;;;;;24.45;15.90;;;;;;;2.12;96.21;100839.30;1750012;81;21643;-73
2020/12/19 03:28:45;;;;;;;23.02;12.40;;;;;;;2.14;96.33;100845.28;1709741;83;21223;-76
2020/12/19 03:31:13;;;;;;;32.80;17.98;;;;;;;2.13;96.39;100845.78;1745093;82;21117;-72
2020/12/19 03:33:40;;;;;;;30.75;19.27;;;;;;;2.12;96.43;100839.30;1749213;82;21110;-73
2020/12/19 03:36:09;;;;;;;34.88;19.80;;;;;;;2.15;96.63;100838.49;1719846;82;21638;-74
2020/12/19 03:38:36;;;;;;;33.88;18.10;;;;;;;2.19;96.62;100836.33;1772597;80;21119;-73
2020/12/19 03:41:04;;;;;;;27.90;18.67;;;;;;;2.21;96.55;100847.58;1721412;82;21201;-73
2020/12/19 03:43:32;;;;;;;35.68;21.02;;;;;;;2.23;96.50;100834.16;1761979;81;21182;-72
2020/12/19 03:46:00;;;;;;;30.05;18.37;;;;;;;2.24;96.49;100845.11;1756753;80;21145;-73
2020/12/19 03:48:28;;;;;;;22.45;14.43;;;;;;;2.25;96.57;100848.09;1765999;80;21876;-72
2020/12/19 03:50:55;;;;;;;26.37;15.38;;;;;;;2.27;96.68;100844.27;1717738;83;21933;-73
2020/12/19 03:53:23;;;;;;;27.13;16.10;;;;;;;2.27;96.59;100842.94;1761979;81;23598;-73
2020/12/19 03:55:51;;;;;;;34.55;20.90;;;;;;;2.25;96.55;100843.63;1749108;82;21141;-73
2020/12/19 03:58:19;;;;;;;32.35;18.98;;;;;;;2.24;96.53;100841.13;1759838;81;21198;-74
2020/12/19 04:00:46;;;;;;;36.20;21.45;;;;;;;2.24;96.66;100848.59;1719867;82;21551;-71
2020/12/19 04:03:14;;;;;;;26.87;16.10;;;;;;;2.28;96.90;100845.93;1762214;81;21227;-73
2020/12/19 04:05:42;;;;;;;26.00;15.08;;;;;;;2.31;96.86;100848.23;1762089;80;21199;-76
2020/12/19 04:08:10;;;;;;;32.30;18.07;;;;;;;2.29;96.73;100844.11;1761971;80;21023;-72
2020/12/19 04:10:37;;;;;;;37.73;21.30;;;;;;;2.25;96.67;100842.30;1723814;82;21109;-72
2020/12/19 04:13:05;;;;;;;40.60;23.87;;;;;;;2.28;96.84;100849.91;1735091;82;21360;-72
2020/12/19 04:15:33;;;;;;;34.58;17.70;;;;;;;2.30;96.78;100847.09;1734954;82;21115;-73
2020/12/19 04:18:00;;;;;;;36.53;20.23;;;;;;;2.33;96.90;100846.75;1730422;82;21371;-72
2020/12/19 04:20:28;;;;;;;41.98;21.60;;;;;;;2.34;96.89;100847.09;1754797;81;21130;-72
2020/12/19 04:22:55;;;;;;;30.57;18.12;;;;;;;2.38;96.97;100837.78;1772961;80;21603;-72
2020/12/19 04:25:23;;;;;;;38.53;21.85;;;;;;;2.41;96.92;100840.09;1774076;80;21205;-72
2020/12/19 04:27:51;;;;;;;37.93;20.77;;;;;;;2.39;96.72;100844.77;1774110;80;21664;-72
2020/12/19 04:30:18;;;;;;;45.73;23.02;;;;;;;2.37;96.68;100848.07;1754472;79;22261;-73
2020/12/19 04:32:48;;;;;;;41.37;21.70;;;;;;;2.35;96.66;100843.45;1741837;82;21173;-73
2020/12/19 04:35:16;;;;;;;42.55;24.32;;;;;;;2.37;96.80;100854.70;1741865;82;21181;-72
2020/12/19 04:37:43;;;;;;;39.83;21.33;;;;;;;2.41;96.95;100845.41;1749594;79;21612;-72
2020/12/19 04:40:11;;;;;;;35.73;19.48;;;;;;;2.42;96.86;100839.10;1763503;80;21646;-72
2020/12/19 04:42:41;;;;;;;45.95;23.00;;;;;;;2.41;96.74;100841.42;1774329;80;21308;-73
2020/12/19 04:45:09;;;;;;;29.15;16.65;;;;;;;2.39;96.77;100848.25;1749966;80;21575;-74
2020/12/19 04:47:36;;;;;;;33.88;20.50;;;;;;;2.39;96.75;100846.92;1775897;80;21011;-72
2020/12/19 04:50:06;;;;;;;38.63;24.23;;;;;;;2.36;96.60;100845.08;1775256;80;21145;-74
2020/12/19 04:52:33;;;;;;;34.70;19.67;;;;;;;2.37;96.83;100844.09;1798579;79;21134;-75
2020/12/19 04:55:01;;;;;;;37.38;21.37;;;;;;;2.42;96.98;100839.10;1774176;80;21138;-73
2020/12/19 04:57:29;;;;;;;29.50;17.35;;;;;;;2.45;96.96;100835.60;1774040;80;21071;-72
2020/12/19 04:59:56;;;;;;;17.87;10.88;;;;;;;2.48;96.92;100835.28;1748472;80;21627;-72
2020/12/19 05:02:24;;;;;;;37.48;22.75;;;;;;;2.46;96.83;100832.45;1757074;80;23087;-74
2020/12/19 05:04:52;;;;;;;32.98;20.92;;;;;;;2.43;96.71;100830.15;1730538;82;21573;-72
2020/12/19 05:07:22;;;;;;;40.40;21.70;;;;;;;2.43;96.81;100838.11;1756401;81;21922;-72
2020/12/19 05:09:49;;;;;;;43.70;22.15;;;;;;;2.45;96.89;100840.91;1717592;82;22013;-71
2020/12/19 05:12:17;;;;;;;36.00;20.48;;;;;;;2.51;97.18;100836.27;1719800;82;21180;-73
2020/12/19 05:14:45;;;;;;;37.42;21.87;;;;;;;2.60;97.17;100843.20;1735150;81;22162;-75
2020/12/19 05:17:13;;;;;;;30.52;17.07;;;;;;;2.64;97.01;100845.02;1741007;81;21157;-74
2020/12/19 05:19:41;;;;;;;35.80;19.45;;;;;;;2.64;96.73;100852.98;1702748;82;21498;-74
2020/12/19 05:22:08;;;;;;;36.03;19.10;;;;;;;2.61;96.63;100850.68;1736454;82;21011;-72
2020/12/19 05:24:36;;;;;;;31.77;19.32;;;;;;;2.58;96.53;100848.38;1737938;82;21590;-72
2020/12/19 05:27:04;;;;;;;32.03;20.52;;;;;;;2.61;96.67;100849.34;1742076;81;21586;-74
2020/12/19 05:29:34;;;;;;;35.43;21.73;;;;;;;2.64;96.59;100854.31;1765249;81;21129;-74
2020/12/19 05:32:01;;;;;;;36.10;19.75;;;;;;;2.64;96.49;100854.31;1765298;81;21377;-73
2020/12/19 05:34:29;;;;;;;36.65;20.82;;;;;;;2.63;96.38;100854.00;1765198;81;21661;-72
2020/12/19 05:36:58;;;;;;;26.12;16.95;;;;;;;2.61;96.39;100854.16;1718428;81;21153;-72
2020/12/19 05:39:25;;;;;;;33.35;19.12;;;;;;;2.63;96.30;100857.98;1703808;84;21582;-73
2020/12/19 05:41:53;;;;;;;27.22;16.70;;;;;;;2.61;96.22;100859.48;1704616;82;21212;-71
2020/12/19 05:44:22;;;;;;;27.30;15.43;;;;;;;2.61;96.20;100863.46;1734064;82;21383;-74
2020/12/19 05:46:50;;;;;;;28.85;19.20;;;;;;;2.63;96.23;100864.13;1741093;81;21014;-72
2020/12/19 05:49:18;;;;;;;29.70;16.50;;;;;;;2.64;96.17;100863.61;1765003;81;21129;-73
2020/12/19 05:51:46;;;;;;;17.10;11.30;;;;;;;2.62;96.02;100873.09;1765170;81;21610;-72
2020/12/19 05:54:15;;;;;;;36.70;19.00;;;;;;;2.57;95.93;100870.61;1765190;81;21546;-72
2020/12/19 05:56:48;;;;;;;24.60;14.87;;;;;;;2.54;95.93;100868.30;1765139;81;21394;-74
2020/12/19 05:59:18;;;;;;;19.20;11.55;;;;;;;2.51;95.93;100881.41;1731685;81;21126;-75
2020/12/19 06:01:48;;;;;;;29.82;16.62;;;;;;;2.46;95.91;100888.20;1728952;83;21228;-75
2020/12/19 06:04:17;;;;;;;24.92;13.70;;;;;;;2.42;96.08;100889.05;1751869;80;21177;-74
2020/12/19 06:06:48;;;;;;;16.77;10.65;;;;;;;2.44;96.31;100893.71;1754801;81;21177;-72
2020/12/19 06:09:17;;;;;;;18.02;11.45;;;;;;;2.44;96.29;100898.19;1734645;80;22090;-72
2020/12/19 06:11:58;;;;;;;19.55;12.03;;;;;;;2.39;96.25;100901.84;1744045;82;21123;-75
2020/12/19 06:14:27;;;;;;;18.17;12.15;;;;;;;2.35;96.37;100905.30;1717199;83;21129;-74
2020/12/19 06:16:58;;;;;;;25.72;16.30;;;;;;;2.36;96.49;100914.09;1680444;81;21136;-72
2020/12/19 06:19:25;;;;;;;22.80;13.40;;;;;;;2.35;96.58;100912.47;1733134;81;21128;-71
2020/12/19 06:21:56;;;;;;;23.83;13.85;;;;;;;2.37;96.86;100922.41;1730887;81;22141;-72
2020/12/19 06:24:47;;;;;;;20.60;14.70;;;;;;;2.41;96.97;100921.06;1730648;81;21203;-73
2020/12/19 06:27:28;;;;;;;25.55;15.20;;;;;;;2.41;96.93;100925.05;1730893;82;21613;-73
2020/12/19 06:29:55;;;;;;;27.07;15.35;;;;;;;2.39;96.87;100927.89;1730738;82;21100;-72
2020/12/19 06:32:27;;;;;;;24.25;15.78;;;;;;;2.39;96.94;100935.86;1731333;81;21158;-71
2020/12/19 06:35:05;;;;;;;27.07;17.10;;;;;;;2.40;97.06;100938.02;1730806;82;21094;-71
2020/12/19 06:37:33;;;;;;;28.00;16.97;;;;;;;2.41;97.24;100936.50;1730691;82;21135;-73
2020/12/19 06:40:18;;;;;;;28.47;17.05;;;;;;;2.42;97.35;100940.82;1730948;81;21119;-73
2020/12/19 06:42:49;;;;;;;24.60;13.22;;;;;;;2.47;97.50;100946.47;1730242;82;21070;-73
2020/12/19 06:48:28;;;;;;;27.77;18.00;;;;;;;2.51;97.32;100945.13;1889358;76;22834;-73
2020/12/19 06:51:04;;;;;;;30.43;18.10;;;;;;;2.54;97.38;100945.31;1883443;76;22694;-72
2020/12/19 06:53:32;;;;;;;22.02;14.33;;;;;;;2.51;97.43;100948.28;1835101;77;21047;-73
2020/12/19 06:56:01;;;;;;;26.73;15.75;;;;;;;2.47;97.40;100941.16;1854701;77;22343;-73
2020/12/19 06:58:35;;;;;;;29.42;18.00;;;;;;;2.46;97.46;100943.47;1796381;77;22012;-73
2020/12/19 07:01:27;;;;;;;29.42;17.00;;;;;;;2.46;97.49;100941.31;1812705;79;21035;-73
2020/12/19 07:03:56;;;;;;;31.25;16.85;;;;;;;2.44;97.52;100944.16;1823052;77;21137;-72
2020/12/19 07:06:23;;;;;;;29.50;18.00;;;;;;;2.44;97.66;100934.03;1821958;77;21019;-73
2020/12/19 07:08:51;;;;;;;23.10;13.10;;;;;;;2.44;97.82;100936.19;1823812;77;22968;-74
2020/12/19 07:11:38;;;;;;;26.00;16.02;;;;;;;2.48;98.00;100941.50;1821522;77;20999;-73
2020/12/19 07:14:15;;;;;;;30.72;18.75;;;;;;;2.50;97.97;100941.30;1832724;77;21606;-72
2020/12/19 07:16:52;;;;;;;35.45;20.17;;;;;;;2.50;97.93;100938.16;1820870;78;21094;-72
2020/12/19 07:19:27;;;;;;;26.62;14.00;;;;;;;2.53;97.92;100933.02;1820671;78;21157;-73
2020/12/19 07:21:56;;;;;;;26.85;15.50;;;;;;;2.56;98.00;100942.80;1822701;77;21432;-74
2020/12/19 07:24:24;;;;;;;28.90;18.20;;;;;;;2.60;98.04;100939.31;1836585;77;21089;-71
2020/12/19 07:26:53;;;;;;;25.60;16.05;;;;;;;2.59;97.97;100940.33;1854361;77;21175;-73
2020/12/19 07:29:23;;;;;;;29.18;15.88;;;;;;;2.59;97.95;100940.33;1850507;77;21094;-73
2020/12/19 07:31:59;;;;;;;34.13;19.57;;;;;;;2.59;97.96;100944.31;1848342;77;21121;-77
2020/12/19 07:34:27;;;;;;;30.70;17.92;;;;;;;2.61;98.01;100943.14;1822543;77;21370;-72
2020/12/19 07:36:55;;;;;;;31.87;19.82;;;;;;;2.64;98.03;100948.10;1820922;78;21496;-72
2020/12/19 07:39:23;;;;;;;25.12;15.05;;;;;;;2.68;98.06;100947.78;1821636;78;21559;-74
2020/12/19 07:42:08;;;;;;;29.90;17.60;;;;;;;2.74;98.25;100941.78;1822587;77;21090;-71
2020/12/19 07:44:37;;;;;;;33.42;19.12;;;;;;;2.80;98.17;100948.59;1833729;77;21153;-72
2020/12/19 07:47:08;;;;;;;36.15;20.60;;;;;;;2.87;98.19;100944.77;1822536;78;21189;-72
2020/12/19 07:49:46;;;;;;;33.00;20.57;;;;;;;2.94;98.21;100942.58;1750685;81;21140;-72
2020/12/19 07:52:26;;;;;;;35.68;19.23;;;;;;;3.00;97.97;100949.05;1834158;77;21038;-73
2020/12/19 07:55:04;;;;;;;39.45;24.87;;;;;;;3.02;97.74;100951.05;1854493;77;20986;-72
2020/12/19 07:57:32;;;;;;;32.00;19.73;;;;;;;3.06;97.58;100956.35;1849947;77;21133;-74
2020/12/19 08:00:03;;;;;;;35.03;20.08;;;;;;;3.09;97.46;100958.66;1854447;77;22321;-74
2020/12/19 08:02:32;;;;;;;32.58;20.75;;;;;;;3.14;97.51;100960.30;1828289;77;21587;-72
2020/12/19 08:05:00;;;;;;;33.50;19.30;;;;;;;3.21;97.42;100968.44;1776123;77;21129;-74
2020/12/19 08:07:29;;;;;;;34.75;21.27;;;;;;;3.25;97.07;100963.94;1824130;77;21114;-72
2020/12/19 08:10:02;;;;;;;33.58;19.32;;;;;;;3.25;96.87;100968.42;1814358;77;21822;-71
2020/12/19 08:12:30;;;;;;;40.98;22.90;;;;;;;3.24;96.64;100972.08;1844425;77;21356;-70
2020/12/19 08:15:01;;;;;;;38.33;19.52;;;;;;;3.19;96.31;100965.94;1844001;76;21114;-73
2020/12/19 08:17:29;;;;;;;33.00;20.10;;;;;;;3.17;96.21;100967.09;1824025;77;21199;-71
2020/12/19 08:19:57;;;;;;;38.53;23.10;;;;;;;3.20;96.36;100966.77;1820584;77;21030;-71
2020/12/19 08:22:25;;;;;;;31.33;18.50;;;;;;;3.26;96.48;100960.25;1840549;77;21551;-74
2020/12/19 08:24:54;;;;;;;37.33;20.02;;;;;;;3.33;96.48;100959.08;1827510;77;21365;-71
2020/12/19 08:27:46;;;;;;;32.40;19.00;;;;;;;3.36;96.22;100960.05;1834927;77;21133;-74
2020/12/19 08:30:30;;;;;;;33.50;20.32;;;;;;;3.37;95.97;100960.39;1824826;77;21144;-72
2020/12/19 08:33:04;;;;;;;31.35;18.32;;;;;;;3.35;95.79;100954.43;1838279;77;21547;-71
2020/12/19 08:35:40;;;;;;;37.93;22.55;;;;;;;3.38;95.67;100962.89;1810861;79;21085;-72
2020/12/19 08:38:19;;;;;;;36.90;20.00;;;;;;;3.39;95.57;100958.40;1841280;77;21451;-71
2020/12/19 08:40:48;;;;;;;30.35;18.20;;;;;;;3.41;95.50;100950.56;1818539;78;21050;-72
2020/12/19 08:43:19;;;;;;;32.60;18.65;;;;;;;3.42;95.23;100954.05;1815537;77;21078;-72
2020/12/19 08:45:49;;;;;;;41.00;22.65;;;;;;;3.41;95.18;100949.23;1830253;77;21185;-70
2020/12/19 08:48:22;;;;;;;36.88;20.30;;;;;;;3.43;95.09;100949.07;1820324;78;21153;-70
2020/12/19 08:50:53;;;;;;;40.67;24.20;;;;;;;3.43;94.98;100943.26;1845857;77;21717;-73
2020/12/19 08:53:23;;;;;;;35.92;20.00;;;;;;;3.44;94.78;100942.76;1832780;77;20963;-72
2020/12/19 08:55:52;;;;;;;37.75;21.97;;;;;;;3.45;94.84;100935.91;1817062;78;21007;-71
2020/12/19 08:58:30;;;;;;;33.83;21.35;;;;;;;3.50;94.83;100933.56;1816982;79;21591;-72
2020/12/19 09:01:02;;;;;;;40.92;21.87;;;;;;;3.56;94.85;100938.70;1821002;77;21121;-73
2020/12/19 09:03:32;;;;;;;28.60;18.10;;;;;;;3.62;94.77;100938.02;1823911;77;21368;-71
2020/12/19 09:06:07;;;;;;;30.08;18.87;;;;;;;3.67;94.66;100929.00;1826331;78;21137;-72
2020/12/19 09:08:44;;;;;;;30.77;17.07;;;;;;;3.71;94.53;100920.16;1827107;78;21712;-72
2020/12/19 09:11:29;;;;;;;35.68;22.07;;;;;;;3.70;94.29;100919.83;1826054;78;21089;-73
2020/12/19 09:14:08;;;;;;;36.90;21.93;;;;;;;3.65;93.96;100918.20;1826035;78;21065;-72
2020/12/19 09:16:50;;;;;;;36.93;23.02;;;;;;;3.72;94.35;100916.51;1843241;77;22049;-73
2020/12/19 09:19:18;;;;;;;32.98;19.17;;;;;;;3.83;94.31;100916.12;1860014;77;21145;-75
2020/12/19 09:21:57;;;;;;;30.02;19.05;;;;;;;3.90;94.12;100916.55;1839121;77;21562;-73
2020/12/19 09:24:24;;;;;;;36.10;21.20;;;;;;;3.95;93.74;100916.02;1826633;77;21114;-72
2020/12/19 09:26:52;;;;;;;34.10;20.48;;;;;;;3.91;93.37;100920.05;1825962;78;21580;-72
2020/12/19 09:29:20;;;;;;;28.95;17.27;;;;;;;3.91;93.37;100920.05;1826389;77;21363;-72
2020/12/19 09:31:47;;;;;;;33.83;22.10;;;;;;;3.92;93.04;100927.86;1826059;77;21148;-73
2020/12/19 09:34:15;;;;;;;31.15;18.70;;;;;;;3.88;92.77;100928.39;1826195;78;21590;-72
2020/12/19 09:36:42;;;;;;;37.10;22.48;;;;;;;3.87;92.79;100926.23;1825896;78;21003;-73
2020/12/19 09:39:10;;;;;;;37.00;19.90;;;;;;;3.92;92.96;100925.20;1826045;78;21119;-73
2020/12/19 09:41:37;;;;;;;29.23;17.00;;;;;;;3.99;92.95;100918.66;1825955;78;21266;-73
2020/12/19 09:44:05;;;;;;;29.18;18.52;;;;;;;4.03;92.61;100916.48;1771654;78;21045;-72
2020/12/19 09:46:33;;;;;;;39.05;22.00;;;;;;;4.02;92.52;100918.31;1826600;77;21168;-73
2020/12/19 09:49:00;;;;;;;37.17;20.85;;;;;;;3.98;92.29;100922.31;1820372;77;21097;-74
2020/12/19 09:51:31;;;;;;;35.17;20.95;;;;;;;3.98;92.18;100924.17;1838298;77;21082;-72
2020/12/19 09:53:58;;;;;;;32.17;19.15;;;;;;;4.00;92.29;100928.80;1853979;77;21578;-72
2020/12/19 09:56:26;;;;;;;40.48;26.37;;;;;;;4.03;92.22;100920.48;1834574;77;21118;-71
2020/12/19 09:58:55;;;;;;;29.65;20.05;;;;;;;4.04;92.26;100918.13;1820123;78;20955;-72
2020/12/19 10:01:22;;;;;;;29.32;17.62;;;;;;;4.11;92.15;100920.41;1820152;77;21567;-72
2020/12/19 10:03:50;;;;;;;24.50;16.45;;;;;;;4.11;92.15;100920.41;1820245;78;21769;-71
2020/12/19 10:06:17;;;;;;;32.80;20.72;;;;;;;4.04;91.94;100913.62;1820225;78;21252;-72
2020/12/19 10:08:46;;;;;;;36.80;21.80;;;;;;;4.04;91.94;100913.62;1820182;78;21153;-75
2020/12/19 10:11:13;;;;;;;33.08;21.42;;;;;;;4.05;92.02;100913.96;1834744;77;20982;-73
2020/12/19 10:13:41;;;;;;;28.98;17.98;;;;;;;4.06;92.00;100920.12;1845758;77;21149;-71
2020/12/19 10:16:09;;;;;;;33.67;19.98;;;;;;;4.07;91.97;100911.96;1841381;77;21141;-69
2020/12/19 10:18:38;;;;;;;41.77;23.52;;;;;;;4.05;91.93;100915.79;1853656;77;21543;-72
2020/12/19 10:21:08;;;;;;;36.28;23.10;;;;;;;4.03;92.02;100914.63;1837409;77;21130;-73
2020/12/19 10:23:36;;;;;;;32.63;20.88;;;;;;;4.06;92.19;100908.13;1822249;77;21191;-69
2020/12/19 10:26:03;;;;;;;40.35;24.15;;;;;;;4.10;92.09;100918.25;1778150;79;21570;-72
2020/12/19 10:28:31;;;;;;;34.80;23.20;;;;;;;4.10;92.09;100918.25;1820378;77;21125;-70
2020/12/19 10:30:59;;;;;;;37.17;21.80;;;;;;;4.10;92.19;100915.59;1816668;77;21376;-71
2020/12/19 10:33:27;;;;;;;31.05;20.80;;;;;;;4.12;92.20;100918.91;1821645;77;21188;-71
2020/12/19 10:35:55;;;;;;;30.75;20.62;;;;;;;4.17;92.38;100912.52;1828603;77;21666;-74
2020/12/19 10:38:23;;;;;;;30.60;18.67;;;;;;;4.20;92.16;100909.52;1828943;77;21046;-73
2020/12/19 10:40:53;;;;;;;28.70;19.05;;;;;;;4.20;92.07;100906.86;1834759;77;21190;-73
2020/12/19 10:46:01;;;;;;;28.73;20.43;;;;;;;4.25;92.02;100904.98;1836515;76;22850;-71
2020/12/19 10:48:28;;;;;;;26.15;17.40;;;;;;;4.19;91.95;100905.70;1804494;78;21130;-73
2020/12/19 10:50:56;;;;;;;34.53;24.00;;;;;;;4.15;91.93;100909.73;1801830;79;21363;-72
2020/12/19 10:53:24;;;;;;;32.60;21.20;;;;;;;4.09;92.00;100903.28;1803378;79;20960;-72
2020/12/19 10:55:52;;;;;;;32.35;20.85;;;;;;;4.12;92.36;100903.44;1802736;79;21042;-72
2020/12/19 10:58:19;;;;;;;32.53;21.12;;;;;;;4.18;92.53;100897.38;1812908;79;21061;-71
2020/12/19 11:00:48;;;;;;;33.23;23.18;;;;;;;4.22;92.34;100902.70;1797184;79;20971;-70
2020/12/19 11:03:16;;;;;;;25.43;19.35;;;;;;;4.24;92.26;100904.16;1816907;79;21377;-71
2020/12/19 11:05:44;;;;;;;38.92;23.15;;;;;;;4.24;92.11;100908.16;1814206;79;20999;-70
2020/12/19 11:08:12;;;;;;;33.20;22.32;;;;;;;4.21;91.98;100905.86;1785173;79;21079;-72
2020/12/19 11:10:43;;;;;;;32.42;22.90;;;;;;;4.22;91.96;100912.81;1791898;79;21078;-68
2020/12/19 11:13:12;;;;;;;32.25;21.70;;;;;;;4.23;92.16;100907.82;1798019;79;21589;-68
2020/12/19 11:15:40;;;;;;;33.33;24.60;;;;;;;4.31;92.33;100909.61;1784968;80;21332;-69
2020/12/19 11:18:08;;;;;;;30.57;19.30;;;;;;;4.41;92.23;100906.20;1785324;79;21666;-69
2020/12/19 11:20:36;;;;;;;26.23;18.20;;;;;;;4.43;91.87;100901.50;1796925;79;21633;-72
2020/12/19 11:23:04;;;;;;;44.45;28.45;;;;;;;4.38;91.76;100905.20;1780039;79;21105;-70
2020/12/19 11:25:31;;;;;;;38.23;22.65;;;;;;;4.33;91.49;100904.41;1767024;80;21587;-70
2020/12/19 11:27:59;;;;;;;31.97;22.58;;;;;;;4.30;91.66;100904.78;1784339;80;21511;-70
2020/12/19 11:30:26;;;;;;;37.05;25.00;;;;;;;4.32;91.70;100912.58;1776165;80;21641;-68
2020/12/19 11:32:54;;;;;;;40.83;25.65;;;;;;;4.38;91.84;100910.53;1770646;80;21153;-67